createdAt,value
2023-01-03T00:02:20.129Z,99604.00
2023-01-03T00:04:49.956Z,99610.00
2023-01-03T00:07:34.742Z,99605.00
2023-01-03T00:10:12.628Z,99601.00
2023-01-03T00:12:41.712Z,99608.00
2023-01-03T00:15:12.588Z,99608.00
2023-01-03T00:17:41.721Z,99605.00
2023-01-03T00:20:12.532Z,99619.00
2023-01-03T00:22:41.907Z,99618.00
2023-01-03T00:25:11.256Z,99620.00
2023-01-03T00:27:40.357Z,99626.00
2023-01-03T00:30:10.551Z,99624.00
2023-01-03T00:32:39.694Z,99622.00
2023-01-03T00:35:09.683Z,99634.00
2023-01-03T00:37:38.898Z,99633.00
2023-01-03T00:40:08.590Z,99646.00
2023-01-03T00:42:57.977Z,99638.00
2023-01-03T00:45:29.887Z,99645.00
2023-01-03T00:48:01.519Z,99646.00
2023-01-03T00:50:30.714Z,99652.00
2023-01-03T00:52:59.920Z,99663.00
2023-01-03T00:55:29.131Z,99654.00
2023-01-03T00:57:58.316Z,99663.00
2023-01-03T01:00:27.515Z,99660.00
2023-01-03T01:02:56.960Z,99670.00
2023-01-03T01:05:26.582Z,99673.00
2023-01-03T01:07:55.815Z,99671.00
2023-01-03T01:10:25.733Z,99675.00
2023-01-03T01:12:58.084Z,99679.00
2023-01-03T01:15:27.355Z,99678.00
2023-01-03T01:17:56.552Z,99680.00
2023-01-03T01:20:25.717Z,99683.00
2023-01-03T01:22:55.052Z,99680.00
2023-01-03T01:25:24.225Z,99681.00
2023-01-03T01:27:53.512Z,99682.00
2023-01-03T01:30:22.723Z,99691.00
2023-01-03T01:32:51.968Z,99693.00
2023-01-03T01:35:21.195Z,99694.00
2023-01-03T01:37:52.064Z,99687.00
2023-01-03T01:40:21.713Z,99683.00
2023-01-03T01:43:09.585Z,99687.00
2023-01-03T01:45:40.888Z,99690.00
2023-01-03T01:48:15.749Z,99685.00
2023-01-03T01:50:56.234Z,99689.00
2023-01-03T01:53:34.797Z,99689.00
2023-01-03T01:56:10.586Z,99687.00
2023-01-03T01:58:43.095Z,99698.00
2023-01-03T02:01:16.452Z,99689.00
2023-01-03T02:03:52.842Z,99699.00
2023-01-03T02:06:23.393Z,99700.00
2023-01-03T02:08:52.944Z,99698.00
2023-01-03T02:11:42.830Z,99710.00
2023-01-03T02:14:50.484Z,99699.00
2023-01-03T02:17:50.864Z,99711.00
2023-01-03T02:21:18.271Z,99704.00
2023-01-03T02:24:27.101Z,99694.00
2023-01-03T02:27:30.686Z,99700.00
2023-01-03T02:31:10.431Z,99701.00
2023-01-03T02:34:42.068Z,99699.00
2023-01-03T02:37:31.612Z,99700.00
2023-01-03T02:40:30.612Z,99700.00
2023-01-03T02:43:30.653Z,99693.00
2023-01-03T02:46:23.725Z,99692.00
2023-01-03T02:49:47.016Z,99692.00
2023-01-03T02:52:24.018Z,99695.00
2023-01-03T02:55:28.005Z,99697.00
2023-01-03T02:58:13.248Z,99693.00
2023-01-03T03:00:49.740Z,99692.00
2023-01-03T03:03:28.069Z,99699.00
2023-01-03T03:06:16.854Z,99689.00
2023-01-03T03:08:48.500Z,99693.00
2023-01-03T03:11:35.888Z,99686.00
2023-01-03T03:14:27.367Z,99686.00
2023-01-03T03:17:05.502Z,99692.00
2023-01-03T03:19:58.666Z,99688.00
2023-01-03T03:23:12.180Z,99695.00
2023-01-03T03:25:56.009Z,99691.00
2023-01-03T03:28:37.614Z,99694.00
2023-01-03T03:31:40.595Z,99686.00
2023-01-03T03:34:26.404Z,99685.00
2023-01-03T03:37:39.425Z,99683.00
2023-01-03T03:40:28.613Z,99683.00
2023-01-03T03:43:18.069Z,99679.00
2023-01-03T03:46:09.053Z,99681.00
2023-01-03T03:49:08.489Z,99676.00
2023-01-03T03:51:40.374Z,99675.00
2023-01-03T03:54:18.386Z,99674.00
2023-01-03T03:56:55.907Z,99666.00
2023-01-03T03:59:29.053Z,99660.00
2023-01-03T04:02:02.532Z,99660.00
2023-01-03T04:04:39.086Z,99653.00
2023-01-03T04:07:08.526Z,99650.00
2023-01-03T04:09:37.624Z,99650.00
2023-01-03T04:12:06.987Z,99644.00
2023-01-03T04:14:36.152Z,99636.00
2023-01-03T04:17:05.300Z,99629.00
2023-01-03T04:19:34.393Z,99623.00
2023-01-03T04:22:03.504Z,99615.00
2023-01-03T04:24:32.641Z,99622.00
2023-01-03T04:27:01.888Z,99612.00
2023-01-03T04:29:34.116Z,99613.00
2023-01-03T04:32:09.172Z,99605.00
2023-01-03T04:34:38.302Z,99598.00
2023-01-03T04:37:07.634Z,99595.00
2023-01-03T04:39:36.929Z,99589.00
2023-01-03T04:42:45.005Z,99586.00
2023-01-03T04:45:14.190Z,99586.00
2023-01-03T04:47:43.273Z,99584.00
2023-01-03T04:50:12.406Z,99577.00
2023-01-03T04:52:41.606Z,99572.00
2023-01-03T04:55:11.273Z,99569.00
2023-01-03T04:57:40.536Z,99557.00
2023-01-03T05:00:10.855Z,99556.00
2023-01-03T05:02:40.126Z,99555.00
2023-01-03T05:05:10.817Z,99551.00
2023-01-03T05:07:39.990Z,99551.00
2023-01-03T05:10:09.567Z,99534.00
2023-01-03T05:12:38.665Z,99536.00
2023-01-03T05:15:08.677Z,99520.00
2023-01-03T05:17:37.802Z,99518.00
2023-01-03T05:20:26.121Z,99519.00
2023-01-03T05:23:12.945Z,99508.00
2023-01-03T05:25:51.544Z,99510.00
2023-01-03T05:28:25.553Z,99511.00
2023-01-03T05:30:54.868Z,99499.00
2023-01-03T05:33:24.048Z,99494.00
2023-01-03T05:35:53.344Z,99492.00
2023-01-03T05:38:24.758Z,99486.00
2023-01-03T05:40:54.107Z,99476.00
2023-01-03T05:43:23.326Z,99471.00
2023-01-03T05:45:54.319Z,99475.00
2023-01-03T05:48:24.643Z,99467.00
2023-01-03T05:50:54.122Z,99462.00
2023-01-03T05:53:23.270Z,99448.00
2023-01-03T05:55:55.203Z,99454.00
2023-01-03T05:58:24.401Z,99445.00
2023-01-03T06:00:53.593Z,99443.00
2023-01-03T06:03:23.613Z,99431.00
2023-01-03T06:05:52.757Z,99425.00
2023-01-03T06:08:21.976Z,99414.00
2023-01-03T06:10:53.767Z,99409.00
2023-01-03T06:13:24.764Z,99400.00
2023-01-03T06:16:12.012Z,99399.00
2023-01-03T06:18:41.282Z,99394.00
2023-01-03T06:21:10.440Z,99392.00
2023-01-03T06:23:39.638Z,99377.00
2023-01-03T06:26:08.855Z,99368.00
2023-01-03T06:28:38.434Z,99371.00
2023-01-03T06:31:07.892Z,99366.00
2023-01-03T06:33:37.982Z,99359.00
2023-01-03T06:36:11.072Z,99350.00
2023-01-03T06:38:41.088Z,99344.00
2023-01-03T06:41:10.612Z,99349.00
2023-01-03T06:43:39.768Z,99347.00
2023-01-03T06:46:27.650Z,99349.00
2023-01-03T06:49:15.243Z,99334.00
2023-01-03T06:52:03.282Z,99329.00
2023-01-03T06:54:36.995Z,99322.00
2023-01-03T06:57:07.609Z,99313.00
2023-01-03T06:59:36.693Z,99306.00
2023-01-03T07:02:09.951Z,99298.00
2023-01-03T07:04:39.141Z,99291.00
2023-01-03T07:07:08.377Z,99298.00
2023-01-03T07:09:38.533Z,99298.00
2023-01-03T07:12:26.002Z,99290.00
2023-01-03T07:14:55.113Z,99290.00
2023-01-03T07:17:24.212Z,99286.00
2023-01-03T07:19:53.342Z,99284.00
2023-01-03T07:22:22.441Z,99289.00
2023-01-03T07:24:51.694Z,99285.00
2023-01-03T07:27:21.104Z,99281.00
2023-01-03T07:29:50.317Z,99282.00
2023-01-03T07:32:19.444Z,99280.00
2023-01-03T07:34:48.546Z,99278.00
2023-01-03T07:37:17.730Z,99264.00
2023-01-03T07:39:46.842Z,99258.00
2023-01-03T07:42:34.380Z,99256.00
2023-01-03T07:45:03.611Z,99258.00
2023-01-03T07:47:32.962Z,99255.00
2023-01-03T07:50:02.141Z,99252.00
2023-01-03T07:52:31.260Z,99259.00
2023-01-03T07:55:00.426Z,99249.00
2023-01-03T07:57:30.274Z,99245.00
2023-01-03T07:59:59.382Z,99250.00
2023-01-03T08:02:28.663Z,99247.00
2023-01-03T08:04:57.890Z,99251.00
2023-01-03T08:07:27.093Z,99244.00
2023-01-03T08:10:14.414Z,99245.00
2023-01-03T08:13:04.500Z,99242.00
2023-01-03T08:15:33.816Z,99235.00
2023-01-03T08:18:03.118Z,99235.00
2023-01-03T08:20:32.229Z,99234.00
2023-01-03T08:23:02.103Z,99239.00
2023-01-03T08:25:32.236Z,99243.00
2023-01-03T08:28:03.016Z,99237.00
2023-01-03T08:30:32.504Z,99232.00
2023-01-03T08:33:05.308Z,99228.00
2023-01-03T08:35:40.864Z,99224.00
2023-01-03T08:38:19.197Z,99228.00
2023-01-03T08:40:48.939Z,99233.00
2023-01-03T08:43:19.052Z,99228.00
2023-01-03T08:45:50.355Z,99223.00
2023-01-03T08:48:24.369Z,99231.00
2023-01-03T08:50:53.933Z,99221.00
2023-01-03T08:53:25.280Z,99225.00
2023-01-03T08:55:54.487Z,99238.00
2023-01-03T08:58:23.947Z,99228.00
2023-01-03T09:00:53.120Z,99228.00
2023-01-03T09:03:22.491Z,99229.00
2023-01-03T09:05:51.823Z,99225.00
2023-01-03T09:08:21.015Z,99219.00
2023-01-03T09:10:50.205Z,99224.00
2023-01-03T09:13:19.377Z,99227.00
2023-01-03T09:15:48.534Z,99229.00
2023-01-03T09:18:18.032Z,99225.00
2023-01-03T09:20:52.211Z,99226.00
2023-01-03T09:23:21.602Z,99232.00
2023-01-03T09:25:51.241Z,99232.00
2023-01-03T09:28:20.477Z,99230.00
2023-01-03T09:30:49.941Z,99224.00
2023-01-03T09:33:19.269Z,99226.00
2023-01-03T09:35:48.567Z,99222.00
2023-01-03T09:38:17.761Z,99224.00
2023-01-03T09:40:48.693Z,99223.00
2023-01-03T09:43:25.614Z,99225.00
2023-01-03T09:46:02.979Z,99228.00
2023-01-03T09:48:38.565Z,99230.00
2023-01-03T09:51:35.148Z,99233.00
2023-01-03T09:54:22.945Z,99236.00
2023-01-03T09:57:10.338Z,99237.00
2023-01-03T09:59:57.546Z,99246.00
2023-01-03T10:03:24.626Z,99247.00
2023-01-03T10:06:36.284Z,99256.00
2023-01-03T10:09:34.344Z,99259.00
2023-01-03T10:12:27.225Z,99264.00
2023-01-03T10:15:39.404Z,99271.00
2023-01-03T10:18:48.885Z,99276.00
2023-01-03T10:21:30.355Z,99281.00
2023-01-03T10:24:00.725Z,99278.00
2023-01-03T10:26:35.369Z,99282.00
2023-01-03T10:29:04.535Z,99285.00
2023-01-03T10:32:08.787Z,99283.00
2023-01-03T10:34:40.394Z,99291.00
2023-01-03T10:37:20.366Z,99290.00
2023-01-03T10:39:49.601Z,99289.00
2023-01-03T10:42:20.574Z,99290.00
2023-01-03T10:45:08.217Z,99296.00
2023-01-03T10:47:37.477Z,99304.00
2023-01-03T10:50:08.575Z,99304.00
2023-01-03T10:52:44.116Z,99314.00
2023-01-03T10:55:20.176Z,99317.00
2023-01-03T10:58:02.440Z,99326.00
2023-01-03T11:00:40.080Z,99326.00
2023-01-03T11:03:20.312Z,99326.00
2023-01-03T11:06:03.576Z,99326.00
2023-01-03T11:08:50.315Z,99326.00
2023-01-03T11:11:38.093Z,99331.00
2023-01-03T11:14:29.193Z,99334.00
2023-01-03T11:17:07.237Z,99343.00
2023-01-03T11:19:36.796Z,99346.00
2023-01-03T11:22:39.491Z,99347.00
2023-01-03T11:26:03.279Z,99342.00
2023-01-03T11:28:53.521Z,99360.00
2023-01-03T11:32:04.632Z,99360.00
2023-01-03T11:35:22.950Z,99356.00
2023-01-03T11:38:21.308Z,99361.00
2023-01-03T11:41:23.675Z,99365.00
2023-01-03T11:44:52.839Z,99362.00
2023-01-03T11:47:43.222Z,99368.00
2023-01-03T11:50:37.745Z,99373.00
2023-01-03T11:53:38.229Z,99387.00
2023-01-03T11:56:32.228Z,99389.00
2023-01-03T11:59:28.553Z,99392.00
2023-01-03T12:02:49.518Z,99393.00
2023-01-03T12:05:47.627Z,99397.00
2023-01-03T12:08:39.737Z,99400.00
2023-01-03T12:11:36.406Z,99403.00
2023-01-03T12:14:26.685Z,99409.00
2023-01-03T12:17:12.396Z,99405.00
2023-01-03T12:19:56.848Z,99405.00
2023-01-03T12:22:37.437Z,99412.00
2023-01-03T12:25:31.078Z,99420.00
2023-01-03T12:28:13.006Z,99425.00
2023-01-03T12:31:09.078Z,99422.00
2023-01-03T12:34:15.456Z,99424.00
2023-01-03T12:37:15.892Z,99428.00
2023-01-03T12:40:03.011Z,99439.00
2023-01-03T12:42:38.271Z,99440.00
2023-01-03T12:45:13.689Z,99440.00
2023-01-03T12:47:52.759Z,99455.00
2023-01-03T12:50:48.597Z,99457.00
2023-01-03T12:53:49.007Z,99461.00
2023-01-03T12:56:48.995Z,99468.00
2023-01-03T13:00:08.787Z,99474.00
2023-01-03T13:02:44.549Z,99474.00
2023-01-03T13:05:50.472Z,99484.00
2023-01-03T13:08:53.181Z,99475.00
2023-01-03T13:11:42.455Z,99481.00
2023-01-03T13:14:31.225Z,99485.00
2023-01-03T13:17:30.626Z,99491.00
2023-01-03T13:20:37.466Z,99486.00
2023-01-03T13:23:36.287Z,99492.00
2023-01-03T13:26:17.318Z,99494.00
2023-01-03T13:28:47.871Z,99495.00
2023-01-03T13:31:20.096Z,99494.00
2023-01-03T13:34:11.627Z,99491.00
2023-01-03T13:37:19.947Z,99494.00
2023-01-03T13:40:03.749Z,99500.00
2023-01-03T13:42:39.746Z,99502.00
2023-01-03T13:45:20.473Z,99508.00
2023-01-03T13:47:55.397Z,99516.00
2023-01-03T13:50:36.776Z,99509.00
2023-01-03T13:53:28.721Z,99512.00
2023-01-03T13:56:22.551Z,99513.00
2023-01-03T13:59:27.890Z,99515.00
2023-01-03T14:02:09.900Z,99526.00
2023-01-03T14:05:34.172Z,99532.00
